sensor_id;sensor_type;location;lat;lon;timestamp;P1;durP1;ratioP1;P2;durP2;ratioP2
57828;SDS011;43657;52.698;6.314;2022-12-05T00:02:08;31.85;;;23.80;;
57828;SDS011;43657;52.698;6.314;2022-12-05T00:04:34;33.80;;;24.38;;
57828;SDS011;43657;52.698;6.314;2022-12-05T00:06:59;32.97;;;23.15;;
57828;SDS011;43657;52.698;6.314;2022-12-05T00:09:25;34.50;;;24.70;;
57828;SDS011;43657;52.698;6.314;2022-12-05T00:11:51;36.05;;;23.52;;
57828;SDS011;43657;52.698;6.314;2022-12-05T00:14:17;34.78;;;24.15;;
57828;SDS011;43657;52.698;6.314;2022-12-05T00:16:43;32.60;;;23.20;;
57828;SDS011;43657;52.698;6.314;2022-12-05T00:19:10;31.98;;;22.95;;
57828;SDS011;43657;52.698;6.314;2022-12-05T00:21:38;33.85;;;23.40;;
57828;SDS011;43657;52.698;6.314;2022-12-05T00:24:05;31.80;;;22.77;;
57828;SDS011;43657;52.698;6.314;2022-12-05T00:26:32;31.80;;;23.00;;
57828;SDS011;43657;52.698;6.314;2022-12-05T00:28:58;30.42;;;22.25;;
57828;SDS011;43657;52.698;6.314;2022-12-05T00:31:25;31.92;;;22.80;;
57828;SDS011;43657;52.698;6.314;2022-12-05T00:33:52;30.02;;;21.10;;
57828;SDS011;43657;52.698;6.314;2022-12-05T00:36:20;29.30;;;21.70;;
57828;SDS011;43657;52.698;6.314;2022-12-05T00:38:48;30.05;;;22.48;;
57828;SDS011;43657;52.698;6.314;2022-12-05T00:41:16;28.10;;;21.15;;
57828;SDS011;43657;52.698;6.314;2022-12-05T00:43:43;26.48;;;19.60;;
57828;SDS011;43657;52.698;6.314;2022-12-05T00:46:11;25.98;;;20.85;;
57828;SDS011;43657;52.698;6.314;2022-12-05T00:48:39;27.13;;;21.02;;
57828;SDS011;43657;52.698;6.314;2022-12-05T00:51:18;29.10;;;21.10;;
57828;SDS011;43657;52.698;6.314;2022-12-05T00:53:46;28.23;;;20.30;;
57828;SDS011;43657;52.698;6.314;2022-12-05T00:56:14;25.63;;;20.00;;
57828;SDS011;43657;52.698;6.314;2022-12-05T00:58:42;25.85;;;19.92;;
57828;SDS011;43657;52.698;6.314;2022-12-05T01:01:09;26.77;;;19.85;;
57828;SDS011;43657;52.698;6.314;2022-12-05T01:03:40;27.92;;;20.05;;
57828;SDS011;43657;52.698;6.314;2022-12-05T01:06:07;26.20;;;19.00;;
57828;SDS011;43657;52.698;6.314;2022-12-05T01:08:33;27.67;;;19.88;;
57828;SDS011;43657;52.698;6.314;2022-12-05T01:10:59;26.00;;;18.95;;
57828;SDS011;43657;52.698;6.314;2022-12-05T01:13:26;24.25;;;18.58;;
57828;SDS011;43657;52.698;6.314;2022-12-05T01:15:52;24.25;;;19.17;;
57828;SDS011;43657;52.698;6.314;2022-12-05T01:18:18;26.92;;;19.85;;
57828;SDS011;43657;52.698;6.314;2022-12-05T01:20:45;24.88;;;18.98;;
57828;SDS011;43657;52.698;6.314;2022-12-05T01:23:11;24.85;;;18.83;;
57828;SDS011;43657;52.698;6.314;2022-12-05T01:25:41;26.45;;;19.15;;
57828;SDS011;43657;52.698;6.314;2022-12-05T01:28:08;25.60;;;19.05;;
57828;SDS011;43657;52.698;6.314;2022-12-05T01:30:38;25.00;;;19.42;;
57828;SDS011;43657;52.698;6.314;2022-12-05T01:33:04;26.27;;;19.88;;
57828;SDS011;43657;52.698;6.314;2022-12-05T01:35:31;26.75;;;19.73;;
57828;SDS011;43657;52.698;6.314;2022-12-05T01:37:58;28.10;;;21.00;;
57828;SDS011;43657;52.698;6.314;2022-12-05T01:40:23;28.17;;;21.63;;
57828;SDS011;43657;52.698;6.314;2022-12-05T01:42:49;29.95;;;21.30;;
57828;SDS011;43657;52.698;6.314;2022-12-05T01:45:17;26.75;;;20.88;;
57828;SDS011;43657;52.698;6.314;2022-12-05T01:47:48;29.38;;;21.17;;
57828;SDS011;43657;52.698;6.314;2022-12-05T01:50:14;29.17;;;22.05;;
57828;SDS011;43657;52.698;6.314;2022-12-05T01:52:40;28.50;;;21.80;;
57828;SDS011;43657;52.698;6.314;2022-12-05T01:55:07;30.60;;;22.40;;
57828;SDS011;43657;52.698;6.314;2022-12-05T01:57:36;28.55;;;22.48;;
57828;SDS011;43657;52.698;6.314;2022-12-05T02:00:04;31.17;;;23.13;;
57828;SDS011;43657;52.698;6.314;2022-12-05T02:02:35;33.63;;;24.08;;
57828;SDS011;43657;52.698;6.314;2022-12-05T02:05:03;37.10;;;24.40;;
57828;SDS011;43657;52.698;6.314;2022-12-05T02:07:33;30.02;;;23.13;;
57828;SDS011;43657;52.698;6.314;2022-12-05T02:10:00;32.47;;;23.35;;
57828;SDS011;43657;52.698;6.314;2022-12-05T02:12:26;33.13;;;23.35;;
57828;SDS011;43657;52.698;6.314;2022-12-05T02:17:23;34.75;;;25.95;;
57828;SDS011;43657;52.698;6.314;2022-12-05T02:22:41;35.60;;;25.90;;
57828;SDS011;43657;52.698;6.314;2022-12-05T02:34:05;35.80;;;25.63;;
57828;SDS011;43657;52.698;6.314;2022-12-05T02:36:44;37.08;;;26.63;;
57828;SDS011;43657;52.698;6.314;2022-12-05T02:39:18;38.25;;;26.67;;
57828;SDS011;43657;52.698;6.314;2022-12-05T02:41:50;39.92;;;27.48;;
57828;SDS011;43657;52.698;6.314;2022-12-05T02:47:19;41.30;;;28.60;;
57828;SDS011;43657;52.698;6.314;2022-12-05T02:49:49;37.97;;;27.35;;
57828;SDS011;43657;52.698;6.314;2022-12-05T02:52:17;41.17;;;28.33;;
57828;SDS011;43657;52.698;6.314;2022-12-05T02:54:44;40.17;;;27.30;;
57828;SDS011;43657;52.698;6.314;2022-12-05T02:57:13;42.47;;;29.20;;
57828;SDS011;43657;52.698;6.314;2022-12-05T02:59:40;43.28;;;28.42;;
57828;SDS011;43657;52.698;6.314;2022-12-05T03:02:07;44.42;;;29.65;;
57828;SDS011;43657;52.698;6.314;2022-12-05T03:04:33;41.33;;;28.65;;
57828;SDS011;43657;52.698;6.314;2022-12-05T03:07:02;45.30;;;28.67;;
57828;SDS011;43657;52.698;6.314;2022-12-05T03:14:54;42.60;;;29.05;;
57828;SDS011;43657;52.698;6.314;2022-12-05T03:17:34;47.47;;;29.75;;
57828;SDS011;43657;52.698;6.314;2022-12-05T03:20:27;47.65;;;29.73;;
57828;SDS011;43657;52.698;6.314;2022-12-05T03:23:10;46.25;;;29.83;;
57828;SDS011;43657;52.698;6.314;2022-12-05T03:25:42;44.75;;;28.00;;
57828;SDS011;43657;52.698;6.314;2022-12-05T03:28:35;48.13;;;30.23;;
57828;SDS011;43657;52.698;6.314;2022-12-05T03:31:30;49.47;;;28.67;;
57828;SDS011;43657;52.698;6.314;2022-12-05T03:36:59;48.30;;;31.47;;
57828;SDS011;43657;52.698;6.314;2022-12-05T03:39:31;47.50;;;29.73;;
57828;SDS011;43657;52.698;6.314;2022-12-05T03:42:01;51.67;;;30.85;;
57828;SDS011;43657;52.698;6.314;2022-12-05T03:47:05;50.78;;;31.98;;
57828;SDS011;43657;52.698;6.314;2022-12-05T03:50:10;54.90;;;32.33;;
57828;SDS011;43657;52.698;6.314;2022-12-05T03:52:35;50.67;;;31.85;;
57828;SDS011;43657;52.698;6.314;2022-12-05T03:55:08;52.35;;;32.10;;
57828;SDS011;43657;52.698;6.314;2022-12-05T04:00:17;52.85;;;31.08;;
57828;SDS011;43657;52.698;6.314;2022-12-05T04:05:45;50.03;;;31.65;;
57828;SDS011;43657;52.698;6.314;2022-12-05T04:08:16;49.65;;;31.67;;
57828;SDS011;43657;52.698;6.314;2022-12-05T04:10:57;50.28;;;30.85;;
57828;SDS011;43657;52.698;6.314;2022-12-05T04:13:38;45.65;;;30.33;;
57828;SDS011;43657;52.698;6.314;2022-12-05T04:16:17;48.17;;;31.15;;
57828;SDS011;43657;52.698;6.314;2022-12-05T04:21:42;47.95;;;29.52;;
57828;SDS011;43657;52.698;6.314;2022-12-05T04:24:18;45.75;;;29.83;;
57828;SDS011;43657;52.698;6.314;2022-12-05T04:27:18;45.78;;;29.52;;
57828;SDS011;43657;52.698;6.314;2022-12-05T04:32:39;41.95;;;28.17;;
57828;SDS011;43657;52.698;6.314;2022-12-05T04:35:34;43.35;;;26.98;;
57828;SDS011;43657;52.698;6.314;2022-12-05T04:38:10;39.17;;;26.52;;
57828;SDS011;43657;52.698;6.314;2022-12-05T04:40:59;41.00;;;25.17;;
57828;SDS011;43657;52.698;6.314;2022-12-05T04:43:28;38.88;;;27.02;;
57828;SDS011;43657;52.698;6.314;2022-12-05T04:45:57;39.95;;;25.92;;
57828;SDS011;43657;52.698;6.314;2022-12-05T04:48:26;35.45;;;24.23;;
57828;SDS011;43657;52.698;6.314;2022-12-05T04:50:54;35.83;;;23.63;;
57828;SDS011;43657;52.698;6.314;2022-12-05T04:53:22;31.98;;;22.33;;
57828;SDS011;43657;52.698;6.314;2022-12-05T04:55:51;37.38;;;23.95;;
57828;SDS011;43657;52.698;6.314;2022-12-05T04:58:20;32.55;;;22.70;;
57828;SDS011;43657;52.698;6.314;2022-12-05T05:03:35;31.27;;;23.02;;
57828;SDS011;43657;52.698;6.314;2022-12-05T05:06:17;29.75;;;21.02;;
57828;SDS011;43657;52.698;6.314;2022-12-05T05:08:50;30.02;;;20.90;;
57828;SDS011;43657;52.698;6.314;2022-12-05T05:11:19;29.60;;;21.38;;
57828;SDS011;43657;52.698;6.314;2022-12-05T05:13:45;26.42;;;20.35;;
57828;SDS011;43657;52.698;6.314;2022-12-05T05:16:15;28.58;;;19.83;;
57828;SDS011;43657;52.698;6.314;2022-12-05T05:18:46;27.48;;;19.35;;
57828;SDS011;43657;52.698;6.314;2022-12-05T05:23:48;28.25;;;20.23;;
57828;SDS011;43657;52.698;6.314;2022-12-05T05:26:13;24.67;;;19.13;;
57828;SDS011;43657;52.698;6.314;2022-12-05T05:28:39;25.92;;;19.60;;
57828;SDS011;43657;52.698;6.314;2022-12-05T05:31:05;24.50;;;18.42;;
57828;SDS011;43657;52.698;6.314;2022-12-05T05:33:32;24.08;;;19.13;;
57828;SDS011;43657;52.698;6.314;2022-12-05T05:36:04;24.83;;;20.13;;
57828;SDS011;43657;52.698;6.314;2022-12-05T05:38:35;22.88;;;18.77;;
57828;SDS011;43657;52.698;6.314;2022-12-05T05:41:11;23.30;;;17.95;;
57828;SDS011;43657;52.698;6.314;2022-12-05T05:43:45;23.70;;;18.55;;
57828;SDS011;43657;52.698;6.314;2022-12-05T05:46:12;22.13;;;18.10;;
57828;SDS011;43657;52.698;6.314;2022-12-05T05:48:39;23.95;;;18.50;;
57828;SDS011;43657;52.698;6.314;2022-12-05T05:51:06;20.92;;;16.00;;
57828;SDS011;43657;52.698;6.314;2022-12-05T05:53:34;22.23;;;17.55;;
57828;SDS011;43657;52.698;6.314;2022-12-05T05:56:04;18.95;;;16.90;;
57828;SDS011;43657;52.698;6.314;2022-12-05T05:58:31;17.42;;;15.43;;
57828;SDS011;43657;52.698;6.314;2022-12-05T06:03:56;17.98;;;15.48;;
57828;SDS011;43657;52.698;6.314;2022-12-05T06:06:22;16.70;;;14.95;;
57828;SDS011;43657;52.698;6.314;2022-12-05T06:08:49;16.52;;;14.32;;
57828;SDS011;43657;52.698;6.314;2022-12-05T06:11:22;15.75;;;13.30;;
57828;SDS011;43657;52.698;6.314;2022-12-05T06:13:49;12.80;;;11.43;;
57828;SDS011;43657;52.698;6.314;2022-12-05T06:16:16;13.43;;;11.27;;
57828;SDS011;43657;52.698;6.314;2022-12-05T06:18:43;12.55;;;10.45;;
57828;SDS011;43657;52.698;6.314;2022-12-05T06:21:11;12.02;;;10.38;;
57828;SDS011;43657;52.698;6.314;2022-12-05T06:23:38;11.20;;;9.45;;
57828;SDS011;43657;52.698;6.314;2022-12-05T06:26:05;10.73;;;9.63;;
57828;SDS011;43657;52.698;6.314;2022-12-05T06:28:36;11.87;;;9.93;;
57828;SDS011;43657;52.698;6.314;2022-12-05T06:31:08;10.70;;;8.77;;
57828;SDS011;43657;52.698;6.314;2022-12-05T06:33:38;11.32;;;9.88;;
57828;SDS011;43657;52.698;6.314;2022-12-05T06:36:12;10.75;;;9.68;;
57828;SDS011;43657;52.698;6.314;2022-12-05T06:39:08;11.35;;;10.15;;
57828;SDS011;43657;52.698;6.314;2022-12-05T06:41:34;11.32;;;10.07;;
57828;SDS011;43657;52.698;6.314;2022-12-05T06:44:00;10.40;;;9.30;;
57828;SDS011;43657;52.698;6.314;2022-12-05T06:46:29;11.07;;;9.90;;
57828;SDS011;43657;52.698;6.314;2022-12-05T06:48:56;11.35;;;10.23;;
57828;SDS011;43657;52.698;6.314;2022-12-05T06:51:22;11.55;;;10.38;;
57828;SDS011;43657;52.698;6.314;2022-12-05T06:53:48;10.50;;;9.40;;
57828;SDS011;43657;52.698;6.314;2022-12-05T06:56:15;11.05;;;9.95;;
57828;SDS011;43657;52.698;6.314;2022-12-05T06:58:44;11.18;;;9.98;;
57828;SDS011;43657;52.698;6.314;2022-12-05T07:01:12;10.82;;;9.73;;
57828;SDS011;43657;52.698;6.314;2022-12-05T07:07:45;10.57;;;9.52;;
57828;SDS011;43657;52.698;6.314;2022-12-05T07:10:11;10.60;;;9.40;;
57828;SDS011;43657;52.698;6.314;2022-12-05T07:12:40;10.25;;;9.25;;
57828;SDS011;43657;52.698;6.314;2022-12-05T07:15:06;9.75;;;8.75;;
57828;SDS011;43657;52.698;6.314;2022-12-05T07:17:37;10.15;;;9.10;;
57828;SDS011;43657;52.698;6.314;2022-12-05T07:20:12;9.95;;;8.95;;
57828;SDS011;43657;52.698;6.314;2022-12-05T07:22:46;10.38;;;9.27;;
57828;SDS011;43657;52.698;6.314;2022-12-05T07:25:20;9.45;;;8.48;;
57828;SDS011;43657;52.698;6.314;2022-12-05T07:27:49;9.60;;;8.60;;
57828;SDS011;43657;52.698;6.314;2022-12-05T07:30:14;8.95;;;7.68;;
57828;SDS011;43657;52.698;6.314;2022-12-05T07:32:45;8.32;;;7.43;;
57828;SDS011;43657;52.698;6.314;2022-12-05T07:35:11;8.18;;;7.22;;
57828;SDS011;43657;52.698;6.314;2022-12-05T07:37:37;9.73;;;7.90;;
57828;SDS011;43657;52.698;6.314;2022-12-05T07:40:07;8.40;;;6.72;;
57828;SDS011;43657;52.698;6.314;2022-12-05T07:42:33;8.32;;;6.90;;
57828;SDS011;43657;52.698;6.314;2022-12-05T07:45:02;8.77;;;6.95;;
57828;SDS011;43657;52.698;6.314;2022-12-05T07:47:31;8.20;;;6.72;;
57828;SDS011;43657;52.698;6.314;2022-12-05T07:49:57;8.65;;;7.05;;
57828;SDS011;43657;52.698;6.314;2022-12-05T07:52:25;9.55;;;7.30;;
57828;SDS011;43657;52.698;6.314;2022-12-05T07:55:00;8.80;;;7.50;;
57828;SDS011;43657;52.698;6.314;2022-12-05T07:57:29;9.45;;;7.88;;
57828;SDS011;43657;52.698;6.314;2022-12-05T08:00:03;8.63;;;7.25;;
57828;SDS011;43657;52.698;6.314;2022-12-05T08:02:30;11.50;;;7.95;;
57828;SDS011;43657;52.698;6.314;2022-12-05T08:04:59;8.45;;;7.25;;
57828;SDS011;43657;52.698;6.314;2022-12-05T08:07:25;8.70;;;7.47;;
57828;SDS011;43657;52.698;6.314;2022-12-05T08:09:54;10.27;;;8.07;;
57828;SDS011;43657;52.698;6.314;2022-12-05T08:12:25;10.32;;;7.40;;
57828;SDS011;43657;52.698;6.314;2022-12-05T08:14:51;9.57;;;7.60;;
57828;SDS011;43657;52.698;6.314;2022-12-05T08:17:20;9.48;;;7.68;;
57828;SDS011;43657;52.698;6.314;2022-12-05T08:19:46;10.43;;;8.00;;
57828;SDS011;43657;52.698;6.314;2022-12-05T08:22:20;9.02;;;7.57;;
57828;SDS011;43657;52.698;6.314;2022-12-05T08:24:49;10.18;;;8.40;;
57828;SDS011;43657;52.698;6.314;2022-12-05T08:27:20;9.97;;;8.00;;
57828;SDS011;43657;52.698;6.314;2022-12-05T08:29:49;9.45;;;8.45;;
57828;SDS011;43657;52.698;6.314;2022-12-05T08:32:18;11.48;;;8.45;;
57828;SDS011;43657;52.698;6.314;2022-12-05T08:34:47;9.35;;;8.30;;
57828;SDS011;43657;52.698;6.314;2022-12-05T08:37:15;11.48;;;8.55;;
57828;SDS011;43657;52.698;6.314;2022-12-05T08:39:49;12.23;;;9.02;;
57828;SDS011;43657;52.698;6.314;2022-12-05T08:42:21;10.45;;;9.30;;
57828;SDS011;43657;52.698;6.314;2022-12-05T08:44:49;10.27;;;8.90;;
57828;SDS011;43657;52.698;6.314;2022-12-05T08:47:23;9.85;;;8.52;;
57828;SDS011;43657;52.698;6.314;2022-12-05T08:49:51;12.23;;;9.35;;
57828;SDS011;43657;52.698;6.314;2022-12-05T08:52:17;11.68;;;8.98;;
57828;SDS011;43657;52.698;6.314;2022-12-05T08:54:46;11.25;;;9.20;;
57828;SDS011;43657;52.698;6.314;2022-12-05T08:57:13;11.63;;;9.25;;
57828;SDS011;43657;52.698;6.314;2022-12-05T08:59:44;11.60;;;9.25;;
57828;SDS011;43657;52.698;6.314;2022-12-05T09:02:13;13.15;;;9.90;;
57828;SDS011;43657;52.698;6.314;2022-12-05T09:04:42;11.63;;;9.40;;
57828;SDS011;43657;52.698;6.314;2022-12-05T09:07:11;13.80;;;9.75;;
57828;SDS011;43657;52.698;6.314;2022-12-05T09:09:38;14.43;;;9.77;;
57828;SDS011;43657;52.698;6.314;2022-12-05T09:12:09;12.52;;;9.73;;
57828;SDS011;43657;52.698;6.314;2022-12-05T09:14:39;13.98;;;9.75;;
57828;SDS011;43657;52.698;6.314;2022-12-05T09:17:07;12.90;;;9.60;;
57828;SDS011;43657;52.698;6.314;2022-12-05T09:19:36;13.52;;;10.27;;
57828;SDS011;43657;52.698;6.314;2022-12-05T09:22:05;13.63;;;9.55;;
57828;SDS011;43657;52.698;6.314;2022-12-05T09:24:34;10.95;;;9.38;;
57828;SDS011;43657;52.698;6.314;2022-12-05T09:27:00;12.20;;;9.05;;
57828;SDS011;43657;52.698;6.314;2022-12-05T09:29:26;11.52;;;8.77;;
57828;SDS011;43657;52.698;6.314;2022-12-05T09:31:55;10.70;;;8.35;;
57828;SDS011;43657;52.698;6.314;2022-12-05T09:34:22;12.63;;;9.00;;
57828;SDS011;43657;52.698;6.314;2022-12-05T09:36:51;11.32;;;9.23;;
57828;SDS011;43657;52.698;6.314;2022-12-05T09:39:27;12.35;;;9.20;;
57828;SDS011;43657;52.698;6.314;2022-12-05T09:49:47;11.63;;;9.15;;
57828;SDS011;43657;52.698;6.314;2022-12-05T09:52:37;11.48;;;8.48;;
57828;SDS011;43657;52.698;6.314;2022-12-05T09:55:15;11.38;;;9.20;;
57828;SDS011;43657;52.698;6.314;2022-12-05T09:57:57;12.45;;;9.82;;
57828;SDS011;43657;52.698;6.314;2022-12-05T10:14:21;11.60;;;9.45;;
57828;SDS011;43657;52.698;6.314;2022-12-05T10:17:33;12.43;;;10.43;;
57828;SDS011;43657;52.698;6.314;2022-12-05T10:20:03;13.88;;;10.93;;
57828;SDS011;43657;52.698;6.314;2022-12-05T10:22:46;14.15;;;11.40;;
57828;SDS011;43657;52.698;6.314;2022-12-05T10:25:41;14.07;;;11.15;;
57828;SDS011;43657;52.698;6.314;2022-12-05T10:28:17;15.93;;;11.18;;
57828;SDS011;43657;52.698;6.314;2022-12-05T10:33:42;17.70;;;11.40;;
57828;SDS011;43657;52.698;6.314;2022-12-05T10:36:22;14.38;;;10.55;;
57828;SDS011;43657;52.698;6.314;2022-12-05T10:39:07;14.68;;;10.43;;
57828;SDS011;43657;52.698;6.314;2022-12-05T10:41:43;13.35;;;10.20;;
57828;SDS011;43657;52.698;6.314;2022-12-05T10:44:09;14.38;;;11.00;;
57828;SDS011;43657;52.698;6.314;2022-12-05T10:46:56;13.60;;;10.30;;
57828;SDS011;43657;52.698;6.314;2022-12-05T10:49:25;14.60;;;10.93;;
57828;SDS011;43657;52.698;6.314;2022-12-05T10:51:57;11.83;;;10.03;;
57828;SDS011;43657;52.698;6.314;2022-12-05T10:54:30;12.83;;;10.70;;
57828;SDS011;43657;52.698;6.314;2022-12-05T10:57:38;18.23;;;13.85;;
57828;SDS011;43657;52.698;6.314;2022-12-05T11:00:08;20.98;;;15.30;;
57828;SDS011;43657;52.698;6.314;2022-12-05T11:02:52;19.65;;;14.32;;
57828;SDS011;43657;52.698;6.314;2022-12-05T11:05:27;18.40;;;13.80;;
57828;SDS011;43657;52.698;6.314;2022-12-05T11:07:58;20.75;;;16.73;;
57828;SDS011;43657;52.698;6.314;2022-12-05T11:13:58;17.17;;;12.40;;
57828;SDS011;43657;52.698;6.314;2022-12-05T11:16:32;17.27;;;12.98;;
57828;SDS011;43657;52.698;6.314;2022-12-05T11:21:55;15.02;;;11.32;;
57828;SDS011;43657;52.698;6.314;2022-12-05T11:24:38;14.73;;;10.25;;
57828;SDS011;43657;52.698;6.314;2022-12-05T11:27:23;16.45;;;10.48;;
57828;SDS011;43657;52.698;6.314;2022-12-05T11:33:18;12.63;;;9.18;;
57828;SDS011;43657;52.698;6.314;2022-12-05T11:35:55;14.18;;;10.05;;
57828;SDS011;43657;52.698;6.314;2022-12-05T11:38:48;13.85;;;10.13;;
57828;SDS011;43657;52.698;6.314;2022-12-05T11:41:56;13.07;;;10.30;;
57828;SDS011;43657;52.698;6.314;2022-12-05T11:50:58;19.60;;;12.80;;
57828;SDS011;43657;52.698;6.314;2022-12-05T11:57:29;14.27;;;10.85;;
57828;SDS011;43657;52.698;6.314;2022-12-05T12:16:29;18.33;;;12.63;;
57828;SDS011;43657;52.698;6.314;2022-12-05T12:28:42;18.80;;;11.80;;
57828;SDS011;43657;52.698;6.314;2022-12-05T12:41:05;21.80;;;13.40;;
57828;SDS011;43657;52.698;6.314;2022-12-05T12:44:51;20.63;;;12.02;;
57828;SDS011;43657;52.698;6.314;2022-12-05T12:47:49;20.13;;;14.10;;
57828;SDS011;43657;52.698;6.314;2022-12-05T12:51:09;27.63;;;15.15;;
57828;SDS011;43657;52.698;6.314;2022-12-05T12:54:00;18.90;;;12.43;;
57828;SDS011;43657;52.698;6.314;2022-12-05T12:57:21;22.60;;;13.93;;
57828;SDS011;43657;52.698;6.314;2022-12-05T13:03:18;19.27;;;14.52;;
57828;SDS011;43657;52.698;6.314;2022-12-05T13:12:43;20.55;;;12.88;;
57828;SDS011;43657;52.698;6.314;2022-12-05T13:16:22;15.20;;;10.23;;
57828;SDS011;43657;52.698;6.314;2022-12-05T13:22:42;13.75;;;9.20;;
57828;SDS011;43657;52.698;6.314;2022-12-05T13:25:36;15.13;;;10.02;;
57828;SDS011;43657;52.698;6.314;2022-12-05T13:31:10;11.23;;;7.50;;
57828;SDS011;43657;52.698;6.314;2022-12-05T13:33:47;11.25;;;7.90;;
57828;SDS011;43657;52.698;6.314;2022-12-05T13:36:22;13.68;;;8.65;;
57828;SDS011;43657;52.698;6.314;2022-12-05T13:42:00;9.57;;;7.15;;
57828;SDS011;43657;52.698;6.314;2022-12-05T13:44:48;9.70;;;7.20;;
57828;SDS011;43657;52.698;6.314;2022-12-05T13:47:27;9.02;;;6.88;;
57828;SDS011;43657;52.698;6.314;2022-12-05T13:53:31;9.68;;;7.72;;
57828;SDS011;43657;52.698;6.314;2022-12-05T14:11:10;8.20;;;5.95;;
57828;SDS011;43657;52.698;6.314;2022-12-05T14:17:52;7.53;;;6.05;;
57828;SDS011;43657;52.698;6.314;2022-12-05T14:23:41;8.82;;;6.43;;
57828;SDS011;43657;52.698;6.314;2022-12-05T14:29:30;8.40;;;6.15;;
57828;SDS011;43657;52.698;6.314;2022-12-05T14:32:14;8.98;;;6.47;;
57828;SDS011;43657;52.698;6.314;2022-12-05T14:34:56;10.27;;;6.68;;
57828;SDS011;43657;52.698;6.314;2022-12-05T14:40:36;9.48;;;6.22;;
57828;SDS011;43657;52.698;6.314;2022-12-05T14:43:16;9.35;;;6.00;;
57828;SDS011;43657;52.698;6.314;2022-12-05T14:46:04;9.15;;;5.93;;
57828;SDS011;43657;52.698;6.314;2022-12-05T14:48:46;8.95;;;6.18;;
57828;SDS011;43657;52.698;6.314;2022-12-05T14:54:05;8.32;;;6.20;;
57828;SDS011;43657;52.698;6.314;2022-12-05T14:56:45;7.30;;;5.63;;
57828;SDS011;43657;52.698;6.314;2022-12-05T15:04:49;9.23;;;6.07;;
57828;SDS011;43657;52.698;6.314;2022-12-05T15:07:30;8.95;;;6.63;;
57828;SDS011;43657;52.698;6.314;2022-12-05T15:12:54;8.80;;;6.55;;
57828;SDS011;43657;52.698;6.314;2022-12-05T15:16:13;9.15;;;6.28;;
57828;SDS011;43657;52.698;6.314;2022-12-05T15:18:33;11.80;;;6.75;;
57828;SDS011;43657;52.698;6.314;2022-12-05T15:21:28;9.35;;;7.03;;
57828;SDS011;43657;52.698;6.314;2022-12-05T15:24:22;10.18;;;7.50;;
57828;SDS011;43657;52.698;6.314;2022-12-05T15:26:54;11.55;;;7.55;;
57828;SDS011;43657;52.698;6.314;2022-12-05T15:32:02;11.93;;;7.68;;
57828;SDS011;43657;52.698;6.314;2022-12-05T15:40:33;14.60;;;7.97;;
57828;SDS011;43657;52.698;6.314;2022-12-05T15:48:57;13.57;;;8.43;;
57828;SDS011;43657;52.698;6.314;2022-12-05T15:51:42;15.70;;;9.20;;
57828;SDS011;43657;52.698;6.314;2022-12-05T15:54:21;16.55;;;9.27;;
57828;SDS011;43657;52.698;6.314;2022-12-05T15:57:04;11.93;;;8.20;;
57828;SDS011;43657;52.698;6.314;2022-12-05T16:00:17;12.18;;;8.82;;
57828;SDS011;43657;52.698;6.314;2022-12-05T16:02:42;14.00;;;8.93;;
57828;SDS011;43657;52.698;6.314;2022-12-05T16:05:31;16.55;;;9.13;;
57828;SDS011;43657;52.698;6.314;2022-12-05T16:08:06;12.35;;;8.75;;
57828;SDS011;43657;52.698;6.314;2022-12-05T16:10:38;13.93;;;10.05;;
57828;SDS011;43657;52.698;6.314;2022-12-05T16:13:05;12.43;;;8.65;;
57828;SDS011;43657;52.698;6.314;2022-12-05T16:15:37;12.43;;;8.48;;
57828;SDS011;43657;52.698;6.314;2022-12-05T16:18:28;13.02;;;10.13;;
57828;SDS011;43657;52.698;6.314;2022-12-05T16:20:55;12.30;;;8.82;;
57828;SDS011;43657;52.698;6.314;2022-12-05T16:23:42;14.65;;;10.18;;
57828;SDS011;43657;52.698;6.314;2022-12-05T16:26:17;15.30;;;9.77;;
57828;SDS011;43657;52.698;6.314;2022-12-05T16:28:55;14.30;;;9.48;;
57828;SDS011;43657;52.698;6.314;2022-12-05T16:31:25;14.00;;;8.70;;
57828;SDS011;43657;52.698;6.314;2022-12-05T16:34:04;11.53;;;8.30;;
57828;SDS011;43657;52.698;6.314;2022-12-05T16:36:45;12.35;;;8.20;;
57828;SDS011;43657;52.698;6.314;2022-12-05T16:39:15;13.38;;;8.75;;
57828;SDS011;43657;52.698;6.314;2022-12-05T16:41:43;30.83;;;12.30;;
57828;SDS011;43657;52.698;6.314;2022-12-05T16:46:57;10.50;;;8.07;;
57828;SDS011;43657;52.698;6.314;2022-12-05T16:51:57;13.35;;;8.18;;
57828;SDS011;43657;52.698;6.314;2022-12-05T16:54:25;13.23;;;8.23;;
57828;SDS011;43657;52.698;6.314;2022-12-05T16:56:54;14.25;;;8.80;;
57828;SDS011;43657;52.698;6.314;2022-12-05T16:59:30;13.60;;;8.68;;
57828;SDS011;43657;52.698;6.314;2022-12-05T17:02:10;12.77;;;8.38;;
57828;SDS011;43657;52.698;6.314;2022-12-05T17:04:38;10.88;;;8.13;;
57828;SDS011;43657;52.698;6.314;2022-12-05T17:07:05;9.68;;;8.23;;
57828;SDS011;43657;52.698;6.314;2022-12-05T17:09:31;11.98;;;7.88;;
57828;SDS011;43657;52.698;6.314;2022-12-05T17:12:01;11.43;;;8.20;;
57828;SDS011;43657;52.698;6.314;2022-12-05T17:14:34;10.90;;;8.52;;
57828;SDS011;43657;52.698;6.314;2022-12-05T17:17:04;10.73;;;7.60;;
57828;SDS011;43657;52.698;6.314;2022-12-05T17:19:35;11.45;;;7.28;;
57828;SDS011;43657;52.698;6.314;2022-12-05T17:22:03;9.95;;;7.15;;
57828;SDS011;43657;52.698;6.314;2022-12-05T17:24:33;9.82;;;7.68;;
57828;SDS011;43657;52.698;6.314;2022-12-05T17:27:01;9.88;;;7.65;;
57828;SDS011;43657;52.698;6.314;2022-12-05T17:29:29;9.65;;;7.05;;
57828;SDS011;43657;52.698;6.314;2022-12-05T17:31:56;8.90;;;6.85;;
57828;SDS011;43657;52.698;6.314;2022-12-05T17:34:25;8.70;;;6.57;;
57828;SDS011;43657;52.698;6.314;2022-12-05T17:37:00;9.85;;;7.03;;
57828;SDS011;43657;52.698;6.314;2022-12-05T17:39:26;10.00;;;7.45;;
57828;SDS011;43657;52.698;6.314;2022-12-05T17:41:52;10.48;;;8.18;;
57828;SDS011;43657;52.698;6.314;2022-12-05T17:44:18;12.02;;;8.52;;
57828;SDS011;43657;52.698;6.314;2022-12-05T17:46:44;9.30;;;6.97;;
57828;SDS011;43657;52.698;6.314;2022-12-05T17:49:13;8.68;;;7.18;;
57828;SDS011;43657;52.698;6.314;2022-12-05T17:51:42;9.47;;;7.20;;
57828;SDS011;43657;52.698;6.314;2022-12-05T17:54:08;10.55;;;7.43;;
57828;SDS011;43657;52.698;6.314;2022-12-05T17:56:37;10.05;;;7.75;;
57828;SDS011;43657;52.698;6.314;2022-12-05T17:59:03;10.65;;;7.35;;
57828;SDS011;43657;52.698;6.314;2022-12-05T18:01:29;10.82;;;7.25;;
57828;SDS011;43657;52.698;6.314;2022-12-05T18:03:55;16.15;;;10.25;;
57828;SDS011;43657;52.698;6.314;2022-12-05T18:06:21;15.50;;;10.25;;
57828;SDS011;43657;52.698;6.314;2022-12-05T18:08:47;12.70;;;8.75;;
57828;SDS011;43657;52.698;6.314;2022-12-05T18:11:19;17.63;;;10.48;;
57828;SDS011;43657;52.698;6.314;2022-12-05T18:16:31;15.68;;;9.93;;
57828;SDS011;43657;52.698;6.314;2022-12-05T18:19:02;16.05;;;10.38;;
57828;SDS011;43657;52.698;6.314;2022-12-05T18:21:37;10.38;;;8.15;;
57828;SDS011;43657;52.698;6.314;2022-12-05T18:24:03;13.65;;;9.32;;
57828;SDS011;43657;52.698;6.314;2022-12-05T18:26:35;10.77;;;7.28;;
57828;SDS011;43657;52.698;6.314;2022-12-05T18:29:01;13.20;;;8.80;;
57828;SDS011;43657;52.698;6.314;2022-12-05T18:31:27;11.43;;;7.50;;
57828;SDS011;43657;52.698;6.314;2022-12-05T18:33:59;12.05;;;8.82;;
57828;SDS011;43657;52.698;6.314;2022-12-05T18:36:30;19.02;;;13.25;;
57828;SDS011;43657;52.698;6.314;2022-12-05T18:38:56;11.13;;;8.20;;
57828;SDS011;43657;52.698;6.314;2022-12-05T18:41:25;10.20;;;7.53;;
57828;SDS011;43657;52.698;6.314;2022-12-05T18:43:54;13.60;;;9.23;;